sensor_id;sensor_type;location;lat;lon;timestamp;P1;durP1;ratioP1;P2;durP2;ratioP2
2175;SDS011;1094;49.902;10.876;2023-02-24T00:01:33;39.40;;;35.40;;
2175;SDS011;1094;49.902;10.876;2023-02-24T00:04:02;41.07;;;36.60;;
2175;SDS011;1094;49.902;10.876;2023-02-24T00:06:28;39.70;;;33.93;;
2175;SDS011;1094;49.902;10.876;2023-02-24T00:09:08;40.67;;;36.30;;
2175;SDS011;1094;49.902;10.876;2023-02-24T00:11:35;41.13;;;36.90;;
2175;SDS011;1094;49.902;10.876;2023-02-24T00:14:08;42.70;;;36.67;;
2175;SDS011;1094;49.902;10.876;2023-02-24T00:16:34;42.87;;;37.47;;
2175;SDS011;1094;49.902;10.876;2023-02-24T00:19:01;41.87;;;35.57;;
2175;SDS011;1094;49.902;10.876;2023-02-24T00:21:27;40.60;;;36.10;;
2175;SDS011;1094;49.902;10.876;2023-02-24T00:23:53;42.43;;;37.80;;
2175;SDS011;1094;49.902;10.876;2023-02-24T00:26:19;38.53;;;34.53;;
2175;SDS011;1094;49.902;10.876;2023-02-24T00:28:45;41.73;;;37.33;;
2175;SDS011;1094;49.902;10.876;2023-02-24T00:31:12;40.97;;;36.70;;
2175;SDS011;1094;49.902;10.876;2023-02-24T00:33:40;39.40;;;35.43;;
2175;SDS011;1094;49.902;10.876;2023-02-24T00:36:07;41.57;;;37.10;;
2175;SDS011;1094;49.902;10.876;2023-02-24T00:38:33;45.20;;;36.10;;
2175;SDS011;1094;49.902;10.876;2023-02-24T00:41:00;40.27;;;35.97;;
2175;SDS011;1094;49.902;10.876;2023-02-24T00:43:26;40.90;;;36.00;;
2175;SDS011;1094;49.902;10.876;2023-02-24T00:45:52;41.10;;;36.60;;
2175;SDS011;1094;49.902;10.876;2023-02-24T00:48:18;40.80;;;36.47;;
2175;SDS011;1094;49.902;10.876;2023-02-24T00:50:44;43.70;;;36.10;;
2175;SDS011;1094;49.902;10.876;2023-02-24T00:53:10;39.50;;;35.30;;
2175;SDS011;1094;49.902;10.876;2023-02-24T00:55:36;43.77;;;38.17;;
2175;SDS011;1094;49.902;10.876;2023-02-24T00:58:02;46.70;;;37.50;;
2175;SDS011;1094;49.902;10.876;2023-02-24T01:00:31;44.13;;;36.97;;
2175;SDS011;1094;49.902;10.876;2023-02-24T01:03:00;42.67;;;36.50;;
2175;SDS011;1094;49.902;10.876;2023-02-24T01:05:26;45.17;;;37.73;;
2175;SDS011;1094;49.902;10.876;2023-02-24T01:07:52;41.87;;;37.17;;
2175;SDS011;1094;49.902;10.876;2023-02-24T01:10:19;45.47;;;36.57;;
2175;SDS011;1094;49.902;10.876;2023-02-24T01:12:47;45.67;;;36.43;;
2175;SDS011;1094;49.902;10.876;2023-02-24T01:15:13;44.33;;;36.20;;
2175;SDS011;1094;49.902;10.876;2023-02-24T01:17:40;48.07;;;38.77;;
2175;SDS011;1094;49.902;10.876;2023-02-24T01:20:07;52.40;;;39.43;;
2175;SDS011;1094;49.902;10.876;2023-02-24T01:22:40;57.13;;;38.27;;
2175;SDS011;1094;49.902;10.876;2023-02-24T01:25:06;48.93;;;38.13;;
2175;SDS011;1094;49.902;10.876;2023-02-24T01:27:33;50.23;;;37.93;;
2175;SDS011;1094;49.902;10.876;2023-02-24T01:30:04;53.77;;;37.60;;
2175;SDS011;1094;49.902;10.876;2023-02-24T01:32:30;51.20;;;35.80;;
2175;SDS011;1094;49.902;10.876;2023-02-24T01:34:56;55.27;;;37.70;;
2175;SDS011;1094;49.902;10.876;2023-02-24T01:37:23;51.40;;;36.97;;
2175;SDS011;1094;49.902;10.876;2023-02-24T01:39:49;49.13;;;39.20;;
2175;SDS011;1094;49.902;10.876;2023-02-24T01:42:17;49.50;;;37.17;;
2175;SDS011;1094;49.902;10.876;2023-02-24T01:47:09;45.67;;;36.23;;
2175;SDS011;1094;49.902;10.876;2023-02-24T01:49:40;49.47;;;36.97;;
2175;SDS011;1094;49.902;10.876;2023-02-24T01:52:07;48.60;;;37.27;;
2175;SDS011;1094;49.902;10.876;2023-02-24T01:54:42;48.97;;;38.77;;
2175;SDS011;1094;49.902;10.876;2023-02-24T01:57:09;49.17;;;36.43;;
2175;SDS011;1094;49.902;10.876;2023-02-24T01:59:36;45.93;;;36.70;;
2175;SDS011;1094;49.902;10.876;2023-02-24T02:02:03;48.70;;;35.30;;
2175;SDS011;1094;49.902;10.876;2023-02-24T02:04:38;49.33;;;40.13;;
2175;SDS011;1094;49.902;10.876;2023-02-24T02:07:06;48.60;;;38.50;;
2175;SDS011;1094;49.902;10.876;2023-02-24T02:09:34;48.13;;;36.50;;
2175;SDS011;1094;49.902;10.876;2023-02-24T02:12:01;55.70;;;37.70;;
2175;SDS011;1094;49.902;10.876;2023-02-24T02:14:27;53.93;;;40.90;;
2175;SDS011;1094;49.902;10.876;2023-02-24T02:22:25;47.37;;;37.47;;
2175;SDS011;1094;49.902;10.876;2023-02-24T02:27:53;50.90;;;37.37;;
2175;SDS011;1094;49.902;10.876;2023-02-24T02:33:06;46.67;;;37.07;;
2175;SDS011;1094;49.902;10.876;2023-02-24T02:35:39;48.80;;;36.57;;
2175;SDS011;1094;49.902;10.876;2023-02-24T02:38:12;48.70;;;36.80;;
2175;SDS011;1094;49.902;10.876;2023-02-24T02:40:41;55.17;;;36.97;;
2175;SDS011;1094;49.902;10.876;2023-02-24T02:43:14;49.47;;;37.10;;
2175;SDS011;1094;49.902;10.876;2023-02-24T02:45:44;45.73;;;35.67;;
2175;SDS011;1094;49.902;10.876;2023-02-24T02:48:18;44.57;;;35.83;;
2175;SDS011;1094;49.902;10.876;2023-02-24T02:50:55;48.53;;;35.60;;
2175;SDS011;1094;49.902;10.876;2023-02-24T02:53:42;45.57;;;36.90;;
2175;SDS011;1094;49.902;10.876;2023-02-24T02:56:27;46.63;;;37.30;;
2175;SDS011;1094;49.902;10.876;2023-02-24T02:58:54;55.20;;;38.00;;
2175;SDS011;1094;49.902;10.876;2023-02-24T03:01:22;46.73;;;38.67;;
2175;SDS011;1094;49.902;10.876;2023-02-24T03:03:53;43.37;;;36.33;;
2175;SDS011;1094;49.902;10.876;2023-02-24T03:11:25;50.70;;;36.10;;
2175;SDS011;1094;49.902;10.876;2023-02-24T03:13:52;52.23;;;35.70;;
2175;SDS011;1094;49.902;10.876;2023-02-24T03:16:18;46.50;;;36.70;;
2175;SDS011;1094;49.902;10.876;2023-02-24T03:18:48;47.80;;;34.97;;
2175;SDS011;1094;49.902;10.876;2023-02-24T03:21:16;47.50;;;35.90;;
2175;SDS011;1094;49.902;10.876;2023-02-24T03:23:43;49.13;;;36.40;;
2175;SDS011;1094;49.902;10.876;2023-02-24T03:26:12;48.60;;;36.80;;
2175;SDS011;1094;49.902;10.876;2023-02-24T03:28:54;48.50;;;36.00;;
2175;SDS011;1094;49.902;10.876;2023-02-24T03:31:40;41.93;;;34.83;;
2175;SDS011;1094;49.902;10.876;2023-02-24T03:34:09;47.90;;;36.17;;
2175;SDS011;1094;49.902;10.876;2023-02-24T03:36:37;50.90;;;34.20;;
2175;SDS011;1094;49.902;10.876;2023-02-24T03:39:03;48.00;;;35.80;;
2175;SDS011;1094;49.902;10.876;2023-02-24T03:41:32;51.17;;;35.07;;
2175;SDS011;1094;49.902;10.876;2023-02-24T03:44:02;48.20;;;34.00;;
2175;SDS011;1094;49.902;10.876;2023-02-24T03:46:29;47.77;;;34.63;;
2175;SDS011;1094;49.902;10.876;2023-02-24T03:48:59;46.03;;;34.33;;
2175;SDS011;1094;49.902;10.876;2023-02-24T03:51:27;50.60;;;37.07;;
2175;SDS011;1094;49.902;10.876;2023-02-24T03:54:01;46.73;;;33.33;;
2175;SDS011;1094;49.902;10.876;2023-02-24T03:56:37;51.23;;;33.67;;
2175;SDS011;1094;49.902;10.876;2023-02-24T04:01:50;43.20;;;33.20;;
2175;SDS011;1094;49.902;10.876;2023-02-24T04:04:25;40.30;;;34.33;;
2175;SDS011;1094;49.902;10.876;2023-02-24T04:06:57;37.67;;;32.00;;
2175;SDS011;1094;49.902;10.876;2023-02-24T04:14:42;52.53;;;34.97;;
2175;SDS011;1094;49.902;10.876;2023-02-24T04:19:38;47.77;;;35.00;;
2175;SDS011;1094;49.902;10.876;2023-02-24T04:22:05;44.30;;;36.07;;
2175;SDS011;1094;49.902;10.876;2023-02-24T04:24:34;44.10;;;35.93;;
2175;SDS011;1094;49.902;10.876;2023-02-24T04:27:00;52.20;;;36.10;;
2175;SDS011;1094;49.902;10.876;2023-02-24T04:29:29;45.47;;;34.70;;
2175;SDS011;1094;49.902;10.876;2023-02-24T04:32:00;49.07;;;35.60;;
2175;SDS011;1094;49.902;10.876;2023-02-24T04:34:27;42.33;;;32.27;;
2175;SDS011;1094;49.902;10.876;2023-02-24T04:36:56;53.97;;;36.17;;
2175;SDS011;1094;49.902;10.876;2023-02-24T04:39:23;48.53;;;37.40;;
2175;SDS011;1094;49.902;10.876;2023-02-24T04:41:49;51.60;;;35.37;;
2175;SDS011;1094;49.902;10.876;2023-02-24T04:44:15;47.77;;;36.90;;
2175;SDS011;1094;49.902;10.876;2023-02-24T04:46:42;46.87;;;37.63;;
2175;SDS011;1094;49.902;10.876;2023-02-24T04:49:08;48.73;;;37.60;;
2175;SDS011;1094;49.902;10.876;2023-02-24T04:51:35;54.83;;;37.40;;
2175;SDS011;1094;49.902;10.876;2023-02-24T04:54:01;54.63;;;36.93;;
2175;SDS011;1094;49.902;10.876;2023-02-24T04:56:27;52.93;;;36.53;;
2175;SDS011;1094;49.902;10.876;2023-02-24T04:58:54;51.53;;;37.80;;
2175;SDS011;1094;49.902;10.876;2023-02-24T05:01:20;44.67;;;35.70;;
2175;SDS011;1094;49.902;10.876;2023-02-24T05:03:46;46.13;;;34.53;;
2175;SDS011;1094;49.902;10.876;2023-02-24T05:06:13;52.40;;;38.20;;
2175;SDS011;1094;49.902;10.876;2023-02-24T05:08:39;43.60;;;35.50;;
2175;SDS011;1094;49.902;10.876;2023-02-24T05:11:06;49.53;;;37.07;;
2175;SDS011;1094;49.902;10.876;2023-02-24T05:13:32;50.70;;;37.13;;
2175;SDS011;1094;49.902;10.876;2023-02-24T05:16:05;47.47;;;36.20;;
2175;SDS011;1094;49.902;10.876;2023-02-24T05:18:32;44.30;;;36.40;;
2175;SDS011;1094;49.902;10.876;2023-02-24T05:21:05;50.33;;;36.17;;
2175;SDS011;1094;49.902;10.876;2023-02-24T05:23:50;48.20;;;36.17;;
2175;SDS011;1094;49.902;10.876;2023-02-24T05:26:17;46.67;;;35.50;;
2175;SDS011;1094;49.902;10.876;2023-02-24T05:28:45;45.20;;;35.93;;
2175;SDS011;1094;49.902;10.876;2023-02-24T05:31:14;50.03;;;35.97;;
2175;SDS011;1094;49.902;10.876;2023-02-24T05:33:40;51.23;;;36.40;;
2175;SDS011;1094;49.902;10.876;2023-02-24T05:36:09;45.50;;;35.27;;
2175;SDS011;1094;49.902;10.876;2023-02-24T05:38:36;46.70;;;34.80;;
2175;SDS011;1094;49.902;10.876;2023-02-24T05:41:06;53.00;;;36.90;;
2175;SDS011;1094;49.902;10.876;2023-02-24T05:43:32;51.13;;;35.20;;
2175;SDS011;1094;49.902;10.876;2023-02-24T05:46:00;52.63;;;36.40;;
2175;SDS011;1094;49.902;10.876;2023-02-24T05:48:27;50.07;;;36.57;;
2175;SDS011;1094;49.902;10.876;2023-02-24T05:50:58;47.27;;;37.37;;
2175;SDS011;1094;49.902;10.876;2023-02-24T05:53:24;55.43;;;35.20;;
2175;SDS011;1094;49.902;10.876;2023-02-24T05:55:50;45.40;;;36.13;;
2175;SDS011;1094;49.902;10.876;2023-02-24T05:58:16;49.03;;;36.17;;
2175;SDS011;1094;49.902;10.876;2023-02-24T06:00:42;50.57;;;36.53;;
2175;SDS011;1094;49.902;10.876;2023-02-24T06:03:10;46.70;;;36.03;;
2175;SDS011;1094;49.902;10.876;2023-02-24T06:05:41;48.07;;;37.73;;
2175;SDS011;1094;49.902;10.876;2023-02-24T06:08:07;51.73;;;36.90;;
2175;SDS011;1094;49.902;10.876;2023-02-24T06:10:35;46.87;;;34.97;;
2175;SDS011;1094;49.902;10.876;2023-02-24T06:13:04;47.77;;;35.83;;
2175;SDS011;1094;49.902;10.876;2023-02-24T06:15:30;49.70;;;35.97;;
2175;SDS011;1094;49.902;10.876;2023-02-24T06:17:56;52.27;;;36.70;;
2175;SDS011;1094;49.902;10.876;2023-02-24T06:20:25;50.47;;;36.63;;
2175;SDS011;1094;49.902;10.876;2023-02-24T06:22:52;46.57;;;34.37;;
2175;SDS011;1094;49.902;10.876;2023-02-24T06:25:20;49.43;;;37.60;;
2175;SDS011;1094;49.902;10.876;2023-02-24T06:27:50;49.87;;;36.73;;
2175;SDS011;1094;49.902;10.876;2023-02-24T06:30:18;53.93;;;37.77;;
2175;SDS011;1094;49.902;10.876;2023-02-24T06:32:45;46.43;;;35.67;;
2175;SDS011;1094;49.902;10.876;2023-02-24T06:35:12;46.80;;;34.03;;
2175;SDS011;1094;49.902;10.876;2023-02-24T06:37:38;49.53;;;36.80;;
2175;SDS011;1094;49.902;10.876;2023-02-24T06:40:05;46.70;;;36.30;;
2175;SDS011;1094;49.902;10.876;2023-02-24T06:42:39;42.47;;;35.53;;
2175;SDS011;1094;49.902;10.876;2023-02-24T06:45:06;43.43;;;35.57;;
2175;SDS011;1094;49.902;10.876;2023-02-24T06:47:32;51.83;;;36.53;;
2175;SDS011;1094;49.902;10.876;2023-02-24T06:49:58;45.10;;;36.57;;
2175;SDS011;1094;49.902;10.876;2023-02-24T06:52:24;47.63;;;34.33;;
2175;SDS011;1094;49.902;10.876;2023-02-24T06:54:50;48.57;;;35.10;;
2175;SDS011;1094;49.902;10.876;2023-02-24T06:57:16;44.40;;;35.33;;
2175;SDS011;1094;49.902;10.876;2023-02-24T06:59:42;48.80;;;36.97;;
2175;SDS011;1094;49.902;10.876;2023-02-24T07:02:09;49.60;;;34.93;;
2175;SDS011;1094;49.902;10.876;2023-02-24T07:04:35;46.70;;;36.33;;
2175;SDS011;1094;49.902;10.876;2023-02-24T07:07:07;41.00;;;33.40;;
2175;SDS011;1094;49.902;10.876;2023-02-24T07:09:34;43.17;;;33.60;;
2175;SDS011;1094;49.902;10.876;2023-02-24T07:12:09;46.55;;;35.05;;
2175;SDS011;1094;49.902;10.876;2023-02-24T07:14:36;41.10;;;33.87;;
2175;SDS011;1094;49.902;10.876;2023-02-24T07:17:02;39.90;;;32.13;;
2175;SDS011;1094;49.902;10.876;2023-02-24T07:19:29;45.33;;;33.83;;
2175;SDS011;1094;49.902;10.876;2023-02-24T07:21:59;43.40;;;33.13;;
2175;SDS011;1094;49.902;10.876;2023-02-24T07:24:28;40.60;;;32.57;;
2175;SDS011;1094;49.902;10.876;2023-02-24T07:26:58;40.60;;;30.90;;
2175;SDS011;1094;49.902;10.876;2023-02-24T07:29:24;34.80;;;29.90;;
2175;SDS011;1094;49.902;10.876;2023-02-24T07:31:51;36.07;;;30.73;;
2175;SDS011;1094;49.902;10.876;2023-02-24T07:34:19;40.67;;;32.33;;
2175;SDS011;1094;49.902;10.876;2023-02-24T07:36:48;37.47;;;31.23;;
2175;SDS011;1094;49.902;10.876;2023-02-24T07:39:15;38.80;;;32.40;;
2175;SDS011;1094;49.902;10.876;2023-02-24T07:41:41;37.23;;;30.37;;
2175;SDS011;1094;49.902;10.876;2023-02-24T07:44:13;42.47;;;31.70;;
2175;SDS011;1094;49.902;10.876;2023-02-24T07:46:39;33.30;;;29.73;;
2175;SDS011;1094;49.902;10.876;2023-02-24T07:49:06;34.20;;;30.10;;
2175;SDS011;1094;49.902;10.876;2023-02-24T07:51:33;33.17;;;29.77;;
2175;SDS011;1094;49.902;10.876;2023-02-24T07:54:00;33.30;;;29.27;;
2175;SDS011;1094;49.902;10.876;2023-02-24T07:56:27;32.90;;;28.83;;
2175;SDS011;1094;49.902;10.876;2023-02-24T07:58:59;34.10;;;30.50;;
2175;SDS011;1094;49.902;10.876;2023-02-24T08:01:32;33.07;;;29.57;;
2175;SDS011;1094;49.902;10.876;2023-02-24T08:04:02;31.83;;;28.13;;
2175;SDS011;1094;49.902;10.876;2023-02-24T08:06:32;33.90;;;29.73;;
2175;SDS011;1094;49.902;10.876;2023-02-24T08:09:02;33.10;;;29.90;;
2175;SDS011;1094;49.902;10.876;2023-02-24T08:11:41;32.23;;;28.93;;
2175;SDS011;1094;49.902;10.876;2023-02-24T08:14:10;32.60;;;29.40;;
2175;SDS011;1094;49.902;10.876;2023-02-24T08:16:47;31.83;;;28.73;;
2175;SDS011;1094;49.902;10.876;2023-02-24T08:19:14;32.47;;;29.23;;
2175;SDS011;1094;49.902;10.876;2023-02-24T08:21:45;33.27;;;29.47;;
2175;SDS011;1094;49.902;10.876;2023-02-24T08:24:12;32.10;;;28.77;;
2175;SDS011;1094;49.902;10.876;2023-02-24T08:26:48;33.20;;;29.07;;
2175;SDS011;1094;49.902;10.876;2023-02-24T08:29:38;30.30;;;27.10;;
2175;SDS011;1094;49.902;10.876;2023-02-24T08:32:37;31.63;;;28.27;;
2175;SDS011;1094;49.902;10.876;2023-02-24T08:35:08;32.87;;;28.00;;
2175;SDS011;1094;49.902;10.876;2023-02-24T08:37:39;30.43;;;27.50;;
2175;SDS011;1094;49.902;10.876;2023-02-24T08:40:13;30.83;;;27.73;;
2175;SDS011;1094;49.902;10.876;2023-02-24T08:45:58;29.77;;;26.77;;
2175;SDS011;1094;49.902;10.876;2023-02-24T08:48:32;30.10;;;26.80;;
2175;SDS011;1094;49.902;10.876;2023-02-24T08:53:47;26.90;;;24.37;;
2175;SDS011;1094;49.902;10.876;2023-02-24T08:56:14;29.27;;;26.47;;
2175;SDS011;1094;49.902;10.876;2023-02-24T08:58:48;28.90;;;26.10;;
2175;SDS011;1094;49.902;10.876;2023-02-24T09:03:46;27.93;;;25.30;;
2175;SDS011;1094;49.902;10.876;2023-02-24T09:06:14;27.80;;;25.13;;
2175;SDS011;1094;49.902;10.876;2023-02-24T09:08:41;28.00;;;25.37;;
2175;SDS011;1094;49.902;10.876;2023-02-24T09:11:08;27.57;;;24.83;;
2175;SDS011;1094;49.902;10.876;2023-02-24T09:13:35;27.27;;;25.00;;
2175;SDS011;1094;49.902;10.876;2023-02-24T09:16:07;24.80;;;22.90;;
2175;SDS011;1094;49.902;10.876;2023-02-24T09:18:40;26.83;;;24.53;;
2175;SDS011;1094;49.902;10.876;2023-02-24T09:21:15;27.20;;;24.63;;
2175;SDS011;1094;49.902;10.876;2023-02-24T09:24:00;25.80;;;23.73;;
2175;SDS011;1094;49.902;10.876;2023-02-24T09:26:31;25.83;;;23.73;;
2175;SDS011;1094;49.902;10.876;2023-02-24T09:29:07;27.63;;;25.17;;
2175;SDS011;1094;49.902;10.876;2023-02-24T09:31:52;26.67;;;23.93;;
2175;SDS011;1094;49.902;10.876;2023-02-24T09:34:28;25.93;;;23.73;;
2175;SDS011;1094;49.902;10.876;2023-02-24T09:36:54;26.47;;;23.97;;
2175;SDS011;1094;49.902;10.876;2023-02-24T09:39:26;26.33;;;24.20;;
2175;SDS011;1094;49.902;10.876;2023-02-24T09:41:52;26.27;;;24.07;;
2175;SDS011;1094;49.902;10.876;2023-02-24T09:44:46;26.83;;;24.37;;
2175;SDS011;1094;49.902;10.876;2023-02-24T09:47:31;27.27;;;25.00;;
2175;SDS011;1094;49.902;10.876;2023-02-24T09:52:55;27.90;;;25.07;;
2175;SDS011;1094;49.902;10.876;2023-02-24T09:58:02;28.50;;;25.73;;
2175;SDS011;1094;49.902;10.876;2023-02-24T10:00:57;27.30;;;25.00;;
2175;SDS011;1094;49.902;10.876;2023-02-24T10:03:28;27.30;;;24.53;;
2175;SDS011;1094;49.902;10.876;2023-02-24T10:06:25;28.20;;;25.40;;
2175;SDS011;1094;49.902;10.876;2023-02-24T10:09:00;25.73;;;23.53;;
2175;SDS011;1094;49.902;10.876;2023-02-24T10:11:43;28.40;;;25.67;;
2175;SDS011;1094;49.902;10.876;2023-02-24T10:14:20;26.10;;;24.03;;
2175;SDS011;1094;49.902;10.876;2023-02-24T10:16:48;24.60;;;22.70;;
2175;SDS011;1094;49.902;10.876;2023-02-24T10:19:36;24.40;;;22.47;;
2175;SDS011;1094;49.902;10.876;2023-02-24T10:22:06;25.23;;;23.07;;
2175;SDS011;1094;49.902;10.876;2023-02-24T10:24:47;26.00;;;23.87;;
2175;SDS011;1094;49.902;10.876;2023-02-24T10:32:32;26.03;;;23.47;;
2175;SDS011;1094;49.902;10.876;2023-02-24T10:35:01;25.27;;;23.40;;
2175;SDS011;1094;49.902;10.876;2023-02-24T10:37:27;26.10;;;23.90;;
2175;SDS011;1094;49.902;10.876;2023-02-24T10:39:58;26.70;;;24.30;;
2175;SDS011;1094;49.902;10.876;2023-02-24T10:42:28;25.97;;;23.87;;
2175;SDS011;1094;49.902;10.876;2023-02-24T10:47:41;25.27;;;23.37;;
2175;SDS011;1094;49.902;10.876;2023-02-24T10:50:24;26.07;;;23.90;;
2175;SDS011;1094;49.902;10.876;2023-02-24T10:53:01;26.57;;;24.33;;
2175;SDS011;1094;49.902;10.876;2023-02-24T11:00:52;25.33;;;23.33;;
2175;SDS011;1094;49.902;10.876;2023-02-24T11:03:45;26.07;;;23.97;;
2175;SDS011;1094;49.902;10.876;2023-02-24T11:06:25;25.83;;;23.73;;
2175;SDS011;1094;49.902;10.876;2023-02-24T11:09:13;24.90;;;22.87;;
2175;SDS011;1094;49.902;10.876;2023-02-24T11:11:48;25.03;;;22.93;;
2175;SDS011;1094;49.902;10.876;2023-02-24T11:14:33;26.13;;;24.00;;
2175;SDS011;1094;49.902;10.876;2023-02-24T11:17:21;25.20;;;23.00;;
2175;SDS011;1094;49.902;10.876;2023-02-24T11:19:56;24.70;;;22.63;;
2175;SDS011;1094;49.902;10.876;2023-02-24T11:22:34;26.47;;;24.13;;
2175;SDS011;1094;49.902;10.876;2023-02-24T11:27:45;24.97;;;22.97;;
2175;SDS011;1094;49.902;10.876;2023-02-24T11:35:24;25.50;;;23.53;;
2175;SDS011;1094;49.902;10.876;2023-02-24T11:37:57;26.33;;;23.93;;
2175;SDS011;1094;49.902;10.876;2023-02-24T11:40:26;26.57;;;24.07;;
2175;SDS011;1094;49.902;10.876;2023-02-24T11:43:15;26.97;;;24.30;;
2175;SDS011;1094;49.902;10.876;2023-02-24T11:45:44;26.60;;;24.40;;
2175;SDS011;1094;49.902;10.876;2023-02-24T11:48:14;26.27;;;23.77;;
2175;SDS011;1094;49.902;10.876;2023-02-24T11:50:44;26.27;;;23.87;;
2175;SDS011;1094;49.902;10.876;2023-02-24T11:53:14;25.17;;;23.10;;
2175;SDS011;1094;49.902;10.876;2023-02-24T11:55:43;26.57;;;24.17;;
2175;SDS011;1094;49.902;10.876;2023-02-24T11:58:16;27.10;;;24.70;;
2175;SDS011;1094;49.902;10.876;2023-02-24T12:00:52;25.87;;;23.53;;
2175;SDS011;1094;49.902;10.876;2023-02-24T12:03:32;25.67;;;23.37;;
2175;SDS011;1094;49.902;10.876;2023-02-24T12:06:03;24.93;;;22.50;;
2175;SDS011;1094;49.902;10.876;2023-02-24T12:08:31;25.57;;;23.57;;
2175;SDS011;1094;49.902;10.876;2023-02-24T12:11:01;25.40;;;23.20;;
2175;SDS011;1094;49.902;10.876;2023-02-24T12:13:35;24.53;;;22.63;;
2175;SDS011;1094;49.902;10.876;2023-02-24T12:16:05;26.60;;;24.17;;
2175;SDS011;1094;49.902;10.876;2023-02-24T12:18:33;27.77;;;25.27;;
2175;SDS011;1094;49.902;10.876;2023-02-24T12:21:42;26.27;;;23.97;;
2175;SDS011;1094;49.902;10.876;2023-02-24T12:23:50;26.80;;;24.47;;
2175;SDS011;1094;49.902;10.876;2023-02-24T12:26:35;28.33;;;25.73;;
2175;SDS011;1094;49.902;10.876;2023-02-24T12:32:00;25.20;;;23.20;;
2175;SDS011;1094;49.902;10.876;2023-02-24T12:42:55;27.13;;;24.87;;
2175;SDS011;1094;49.902;10.876;2023-02-24T12:44:56;24.90;;;22.90;;
2175;SDS011;1094;49.902;10.876;2023-02-24T12:48:13;26.53;;;24.07;;
2175;SDS011;1094;49.902;10.876;2023-02-24T12:52:59;25.10;;;23.13;;
2175;SDS011;1094;49.902;10.876;2023-02-24T13:10:58;24.07;;;22.03;;
2175;SDS011;1094;49.902;10.876;2023-02-24T13:13:26;24.47;;;22.43;;
2175;SDS011;1094;49.902;10.876;2023-02-24T13:15:57;24.77;;;22.73;;
2175;SDS011;1094;49.902;10.876;2023-02-24T13:18:30;24.90;;;23.10;;
2175;SDS011;1094;49.902;10.876;2023-02-24T13:21:06;25.50;;;23.60;;
2175;SDS011;1094;49.902;10.876;2023-02-24T13:23:34;25.17;;;23.10;;
2175;SDS011;1094;49.902;10.876;2023-02-24T13:26:01;24.40;;;22.57;;
2175;SDS011;1094;49.902;10.876;2023-02-24T13:30:58;24.60;;;22.60;;
2175;SDS011;1094;49.902;10.876;2023-02-24T13:33:32;24.43;;;22.60;;
2175;SDS011;1094;49.902;10.876;2023-02-24T13:36:18;24.70;;;22.70;;
2175;SDS011;1094;49.902;10.876;2023-02-24T13:39:05;24.27;;;22.57;;
2175;SDS011;1094;49.902;10.876;2023-02-24T13:43:58;25.17;;;23.10;;
2175;SDS011;1094;49.902;10.876;2023-02-24T13:46:35;25.10;;;23.07;;
2175;SDS011;1094;49.902;10.876;2023-02-24T14:02:04;24.97;;;22.77;;
2175;SDS011;1094;49.902;10.876;2023-02-24T14:04:33;25.60;;;23.40;;
2175;SDS011;1094;49.902;10.876;2023-02-24T14:07:04;26.63;;;23.93;;
2175;SDS011;1094;49.902;10.876;2023-02-24T14:09:34;26.37;;;23.97;;
2175;SDS011;1094;49.902;10.876;2023-02-24T14:12:03;25.23;;;23.23;;
2175;SDS011;1094;49.902;10.876;2023-02-24T14:14:31;24.47;;;22.60;;
2175;SDS011;1094;49.902;10.876;2023-02-24T14:16:57;24.47;;;22.53;;
2175;SDS011;1094;49.902;10.876;2023-02-24T14:19:23;24.10;;;22.20;;
2175;SDS011;1094;49.902;10.876;2023-02-24T14:21:54;24.57;;;22.57;;
2175;SDS011;1094;49.902;10.876;2023-02-24T14:24:20;26.03;;;24.03;;
2175;SDS011;1094;49.902;10.876;2023-02-24T14:26:47;25.10;;;23.10;;
2175;SDS011;1094;49.902;10.876;2023-02-24T14:29:21;25.43;;;23.47;;
2175;SDS011;1094;49.902;10.876;2023-02-24T14:31:54;24.83;;;22.93;;
2175;SDS011;1094;49.902;10.876;2023-02-24T14:34:21;24.97;;;22.97;;
2175;SDS011;1094;49.902;10.876;2023-02-24T14:36:49;25.00;;;23.00;;
2175;SDS011;1094;49.902;10.876;2023-02-24T14:39:23;24.87;;;22.97;;
2175;SDS011;1094;49.902;10.876;2023-02-24T14:41:50;26.10;;;23.90;;
2175;SDS011;1094;49.902;10.876;2023-02-24T14:44:18;26.20;;;23.67;;
2175;SDS011;1094;49.902;10.876;2023-02-24T14:46:48;26.87;;;24.57;;
2175;SDS011;1094;49.902;10.876;2023-02-24T14:49:19;25.73;;;23.53;;
2175;SDS011;1094;49.902;10.876;2023-02-24T14:51:46;26.20;;;24.00;;
2175;SDS011;1094;49.902;10.876;2023-02-24T14:54:15;25.10;;;23.10;;
2175;SDS011;1094;49.902;10.876;2023-02-24T14:56:44;23.87;;;21.83;;
2175;SDS011;1094;49.902;10.876;2023-02-24T15:01:40;26.20;;;23.93;;
2175;SDS011;1094;49.902;10.876;2023-02-24T15:04:13;26.57;;;24.37;;
2175;SDS011;1094;49.902;10.876;2023-02-24T15:06:40;26.80;;;24.40;;
2175;SDS011;1094;49.902;10.876;2023-02-24T15:09:14;24.80;;;22.73;;
2175;SDS011;1094;49.902;10.876;2023-02-24T15:11:40;26.83;;;24.63;;
2175;SDS011;1094;49.902;10.876;2023-02-24T15:14:13;25.70;;;23.70;;
2175;SDS011;1094;49.902;10.876;2023-02-24T15:16:41;25.93;;;23.73;;
2175;SDS011;1094;49.902;10.876;2023-02-24T15:21:53;25.33;;;23.33;;
2175;SDS011;1094;49.902;10.876;2023-02-24T15:24:26;26.60;;;24.60;;
2175;SDS011;1094;49.902;10.876;2023-02-24T15:29:37;26.07;;;23.93;;
2175;SDS011;1094;49.902;10.876;2023-02-24T15:32:03;25.67;;;23.40;;
2175;SDS011;1094;49.902;10.876;2023-02-24T15:34:33;25.07;;;23.07;;
2175;SDS011;1094;49.902;10.876;2023-02-24T15:37:12;26.17;;;24.27;;
2175;SDS011;1094;49.902;10.876;2023-02-24T15:39:40;26.00;;;23.63;;
2175;SDS011;1094;49.902;10.876;2023-02-24T15:42:19;25.67;;;23.53;;
2175;SDS011;1094;49.902;10.876;2023-02-24T15:44:50;25.43;;;23.43;;
2175;SDS011;1094;49.902;10.876;2023-02-24T15:47:24;27.30;;;24.73;;
2175;SDS011;1094;49.902;10.876;2023-02-24T15:49:50;25.70;;;23.60;;
2175;SDS011;1094;49.902;10.876;2023-02-24T15:52:18;28.07;;;25.40;;
2175;SDS011;1094;49.902;10.876;2023-02-24T15:54:45;27.83;;;25.27;;
2175;SDS011;1094;49.902;10.876;2023-02-24T15:57:11;26.23;;;23.83;;
2175;SDS011;1094;49.902;10.876;2023-02-24T15:59:40;26.33;;;24.27;;
2175;SDS011;1094;49.902;10.876;2023-02-24T16:02:10;26.03;;;23.93;;
2175;SDS011;1094;49.902;10.876;2023-02-24T16:04:37;26.23;;;24.20;;
2175;SDS011;1094;49.902;10.876;2023-02-24T16:07:03;27.17;;;24.90;;
2175;SDS011;1094;49.902;10.876;2023-02-24T16:09:33;27.93;;;25.67;;
2175;SDS011;1094;49.902;10.876;2023-02-24T16:12:16;26.90;;;24.70;;
2175;SDS011;1094;49.902;10.876;2023-02-24T16:14:44;25.90;;;23.83;;
2175;SDS011;1094;49.902;10.876;2023-02-24T16:17:43;27.27;;;25.20;;
2175;SDS011;1094;49.902;10.876;2023-02-24T16:20:03;26.80;;;24.47;;
2175;SDS011;1094;49.902;10.876;2023-02-24T16:22:33;27.07;;;24.93;;
2175;SDS011;1094;49.902;10.876;2023-02-24T16:24:59;27.53;;;25.10;;
2175;SDS011;1094;49.902;10.876;2023-02-24T16:27:25;27.50;;;25.20;;
2175;SDS011;1094;49.902;10.876;2023-02-24T16:29:53;28.47;;;26.00;;
2175;SDS011;1094;49.902;10.876;2023-02-24T16:32:19;27.63;;;25.13;;
2175;SDS011;1094;49.902;10.876;2023-02-24T16:34:47;27.80;;;25.10;;
2175;SDS011;1094;49.902;10.876;2023-02-24T16:37:14;29.27;;;26.47;;
2175;SDS011;1094;49.902;10.876;2023-02-24T16:39:41;29.00;;;26.30;;
2175;SDS011;1094;49.902;10.876;2023-02-24T16:42:08;27.40;;;24.57;;
2175;SDS011;1094;49.902;10.876;2023-02-24T16:44:34;26.17;;;24.07;;
2175;SDS011;1094;49.902;10.876;2023-02-24T16:47:00;27.65;;;25.15;;
2175;SDS011;1094;49.902;10.876;2023-02-24T16:49:26;28.07;;;25.67;;
2175;SDS011;1094;49.902;10.876;2023-02-24T16:51:52;29.00;;;26.23;;